Annawan, Illinois
Current Conditions -  °F | °C
As of 3:55 AM on Saturday 25 Oct 2014 (Local Time) from KSQI Reporting Station
Overcast Overcast  
Wind Chill: 57°   Ceiling: 200
Heat Index: 57°   Visibility: 1.2mi
Dew Point: 54°   Wind: 8mph
Humidity: 88%   Direction: 290°WNW
Pressure: 29.93"   Gusts: NA
Location:  41.4°N, 89.9°W
Report Text: KSQI 250855Z AUTO 29007KT 1 1/4SM OVC002 14/12 A2993 RMK AO1 54000
Loading
Personal Weather Stations






























Interactive Weather Map New forecast layout! Learn more

10-Day Weather Forecast

Advertisements
Track Severe Weather on mobile